sensor_id;sensor_type;location;lat;lon;timestamp;pressure;altitude;pressure_sealevel;temperature;humidity
53715;BME280;39608;55.630;37.864;2022-09-09T00:05:12;100189.94;;;7.96;60.99
53715;BME280;39608;55.630;37.864;2022-09-09T00:10:22;100200.66;;;7.86;61.48
53715;BME280;39608;55.630;37.864;2022-09-09T00:15:32;100195.72;;;7.73;61.73
53715;BME280;39608;55.630;37.864;2022-09-09T00:20:42;100206.53;;;7.73;61.62
53715;BME280;39608;55.630;37.864;2022-09-09T00:25:49;100203.81;;;7.73;62.01
53715;BME280;39608;55.630;37.864;2022-09-09T00:30:56;100208.91;;;7.69;61.70
53715;BME280;39608;55.630;37.864;2022-09-09T00:36:02;100209.78;;;7.75;62.24
53715;BME280;39608;55.630;37.864;2022-09-09T00:41:11;100212.78;;;7.83;62.12
53715;BME280;39608;55.630;37.864;2022-09-09T00:46:38;100211.03;;;7.99;61.65
53715;BME280;39608;55.630;37.864;2022-09-09T00:51:52;100215.00;;;7.92;61.61
53715;BME280;39608;55.630;37.864;2022-09-09T00:57:11;100210.19;;;7.94;61.57
53715;BME280;39608;55.630;37.864;2022-09-09T01:02:22;100219.06;;;7.89;61.47
53715;BME280;39608;55.630;37.864;2022-09-09T01:07:30;100217.41;;;7.83;61.40
53715;BME280;39608;55.630;37.864;2022-09-09T01:12:38;100226.06;;;7.85;61.58
53715;BME280;39608;55.630;37.864;2022-09-09T01:17:55;100229.63;;;7.91;61.81
53715;BME280;39608;55.630;37.864;2022-09-09T01:23:14;100227.19;;;7.89;61.78
53715;BME280;39608;55.630;37.864;2022-09-09T01:28:25;100237.09;;;7.83;61.70
53715;BME280;39608;55.630;37.864;2022-09-09T01:33:28;100247.84;;;8.11;60.24
53715;BME280;39608;55.630;37.864;2022-09-09T01:38:33;100257.63;;;7.79;61.38
53715;BME280;39608;55.630;37.864;2022-09-09T01:43:37;100255.16;;;7.78;61.65
53715;BME280;39608;55.630;37.864;2022-09-09T01:48:43;100253.53;;;7.77;62.00
53715;BME280;39608;55.630;37.864;2022-09-09T01:53:46;100258.09;;;7.71;62.06
53715;BME280;39608;55.630;37.864;2022-09-09T01:58:59;100261.41;;;7.83;62.05
53715;BME280;39608;55.630;37.864;2022-09-09T02:04:15;100263.56;;;7.81;62.20
53715;BME280;39608;55.630;37.864;2022-09-09T02:09:23;100272.94;;;7.74;62.23
53715;BME280;39608;55.630;37.864;2022-09-09T02:14:30;100272.66;;;7.70;62.37
53715;BME280;39608;55.630;37.864;2022-09-09T02:19:39;100270.94;;;7.59;62.67
53715;BME280;39608;55.630;37.864;2022-09-09T02:24:44;100272.25;;;7.56;62.67
53715;BME280;39608;55.630;37.864;2022-09-09T02:29:49;100273.31;;;7.55;62.78
53715;BME280;39608;55.630;37.864;2022-09-09T02:34:55;100275.97;;;7.50;62.99
53715;BME280;39608;55.630;37.864;2022-09-09T02:39:58;100291.00;;;7.41;63.04
53715;BME280;39608;55.630;37.864;2022-09-09T02:45:01;100294.22;;;7.38;63.22
53715;BME280;39608;55.630;37.864;2022-09-09T02:50:10;100290.66;;;7.32;63.15
53715;BME280;39608;55.630;37.864;2022-09-09T02:55:18;100300.56;;;7.26;63.40
53715;BME280;39608;55.630;37.864;2022-09-09T03:00:26;100323.81;;;7.32;63.45
53715;BME280;39608;55.630;37.864;2022-09-09T03:05:28;100318.38;;;7.27;63.52
53715;BME280;39608;55.630;37.864;2022-09-09T03:10:30;100313.81;;;7.28;63.42
53715;BME280;39608;55.630;37.864;2022-09-09T03:15:34;100327.31;;;7.33;63.48
53715;BME280;39608;55.630;37.864;2022-09-09T03:20:37;100323.03;;;7.32;63.47
53715;BME280;39608;55.630;37.864;2022-09-09T03:25:39;100315.72;;;7.32;63.60
53715;BME280;39608;55.630;37.864;2022-09-09T03:30:43;100323.56;;;7.34;63.76
53715;BME280;39608;55.630;37.864;2022-09-09T03:35:59;100338.88;;;7.50;63.43
53715;BME280;39608;55.630;37.864;2022-09-09T03:41:01;100323.88;;;7.38;63.49
53715;BME280;39608;55.630;37.864;2022-09-09T03:46:05;100347.91;;;7.39;63.80
53715;BME280;39608;55.630;37.864;2022-09-09T03:51:07;100349.25;;;7.36;63.82
53715;BME280;39608;55.630;37.864;2022-09-09T03:56:09;100351.38;;;7.34;63.58
53715;BME280;39608;55.630;37.864;2022-09-09T04:01:14;100360.28;;;7.35;63.84
53715;BME280;39608;55.630;37.864;2022-09-09T04:06:18;100368.06;;;7.31;63.71
53715;BME280;39608;55.630;37.864;2022-09-09T04:11:21;100365.06;;;7.28;63.93
53715;BME280;39608;55.630;37.864;2022-09-09T04:16:25;100358.53;;;7.24;64.03
53715;BME280;39608;55.630;37.864;2022-09-09T04:21:27;100363.88;;;7.18;64.02
53715;BME280;39608;55.630;37.864;2022-09-09T04:26:29;100370.13;;;7.24;64.30
53715;BME280;39608;55.630;37.864;2022-09-09T04:31:33;100377.84;;;7.38;63.97
53715;BME280;39608;55.630;37.864;2022-09-09T04:36:35;100376.78;;;7.39;64.14
53715;BME280;39608;55.630;37.864;2022-09-09T04:41:37;100379.09;;;7.52;63.90
53715;BME280;39608;55.630;37.864;2022-09-09T04:46:42;100374.66;;;7.68;63.83
53715;BME280;39608;55.630;37.864;2022-09-09T04:51:50;100376.16;;;7.81;63.71
53715;BME280;39608;55.630;37.864;2022-09-09T04:57:03;100382.69;;;7.85;63.23
53715;BME280;39608;55.630;37.864;2022-09-09T05:02:07;100385.94;;;8.14;62.87
53715;BME280;39608;55.630;37.864;2022-09-09T05:07:09;100395.19;;;9.57;60.76
53715;BME280;39608;55.630;37.864;2022-09-09T05:12:11;100391.34;;;11.23;56.67
53715;BME280;39608;55.630;37.864;2022-09-09T05:17:16;100414.69;;;12.29;54.50
53715;BME280;39608;55.630;37.864;2022-09-09T05:22:20;100404.63;;;12.88;52.85
53715;BME280;39608;55.630;37.864;2022-09-09T05:27:23;100412.81;;;13.61;51.34
53715;BME280;39608;55.630;37.864;2022-09-09T05:32:27;100412.38;;;13.54;51.91
53715;BME280;39608;55.630;37.864;2022-09-09T05:37:33;100416.78;;;13.49;50.83
53715;BME280;39608;55.630;37.864;2022-09-09T05:42:36;100420.69;;;13.62;50.79
53715;BME280;39608;55.630;37.864;2022-09-09T05:47:40;100421.97;;;14.08;50.02
53715;BME280;39608;55.630;37.864;2022-09-09T05:52:43;100419.19;;;14.79;48.05
53715;BME280;39608;55.630;37.864;2022-09-09T05:57:48;100427.03;;;15.14;47.68
53715;BME280;39608;55.630;37.864;2022-09-09T06:02:53;100424.16;;;15.74;47.01
53715;BME280;39608;55.630;37.864;2022-09-09T06:07:56;100433.28;;;15.84;46.25
53715;BME280;39608;55.630;37.864;2022-09-09T06:12:58;100435.28;;;15.78;46.14
53715;BME280;39608;55.630;37.864;2022-09-09T06:18:01;100442.53;;;15.46;45.52
53715;BME280;39608;55.630;37.864;2022-09-09T06:23:03;100437.72;;;14.82;46.17
53715;BME280;39608;55.630;37.864;2022-09-09T06:28:05;100436.78;;;13.83;47.25
53715;BME280;39608;55.630;37.864;2022-09-09T06:33:08;100441.41;;;12.86;47.64
53715;BME280;39608;55.630;37.864;2022-09-09T06:38:10;100443.16;;;12.02;47.88
53715;BME280;39608;55.630;37.864;2022-09-09T06:43:13;100443.13;;;11.47;47.65
53715;BME280;39608;55.630;37.864;2022-09-09T06:48:16;100441.06;;;11.13;48.08
53715;BME280;39608;55.630;37.864;2022-09-09T06:53:19;100453.31;;;11.00;47.21
53715;BME280;39608;55.630;37.864;2022-09-09T06:58:21;100450.59;;;11.00;47.04
53715;BME280;39608;55.630;37.864;2022-09-09T07:03:25;100448.38;;;11.28;47.06
53715;BME280;39608;55.630;37.864;2022-09-09T07:08:27;100451.47;;;11.66;45.80
53715;BME280;39608;55.630;37.864;2022-09-09T07:13:31;100468.56;;;11.77;45.46
53715;BME280;39608;55.630;37.864;2022-09-09T07:18:35;100467.94;;;11.95;44.30
53715;BME280;39608;55.630;37.864;2022-09-09T07:23:38;100465.44;;;12.04;43.83
53715;BME280;39608;55.630;37.864;2022-09-09T07:28:41;100473.78;;;12.18;43.39
53715;BME280;39608;55.630;37.864;2022-09-09T07:33:45;100477.94;;;12.45;43.90
53715;BME280;39608;55.630;37.864;2022-09-09T07:38:50;100489.78;;;12.64;43.64
53715;BME280;39608;55.630;37.864;2022-09-09T07:43:53;100495.91;;;12.80;43.23
53715;BME280;39608;55.630;37.864;2022-09-09T07:48:57;100492.47;;;12.99;43.07
53715;BME280;39608;55.630;37.864;2022-09-09T07:54:01;100489.66;;;13.09;42.07
53715;BME280;39608;55.630;37.864;2022-09-09T07:59:04;100498.50;;;13.98;40.58
53715;BME280;39608;55.630;37.864;2022-09-09T08:04:10;100495.91;;;14.45;40.32
53715;BME280;39608;55.630;37.864;2022-09-09T08:09:16;100510.66;;;14.06;39.37
53715;BME280;39608;55.630;37.864;2022-09-09T08:14:18;100505.59;;;13.50;40.35
53715;BME280;39608;55.630;37.864;2022-09-09T08:19:28;100507.78;;;15.20;39.20
53715;BME280;39608;55.630;37.864;2022-09-09T08:24:30;100513.63;;;15.88;37.17
53715;BME280;39608;55.630;37.864;2022-09-09T08:29:32;100514.44;;;14.67;38.43
53715;BME280;39608;55.630;37.864;2022-09-09T08:34:36;100513.19;;;15.39;38.00
53715;BME280;39608;55.630;37.864;2022-09-09T08:39:38;100520.88;;;15.37;36.72
53715;BME280;39608;55.630;37.864;2022-09-09T08:44:52;100522.38;;;14.44;37.16
53715;BME280;39608;55.630;37.864;2022-09-09T08:50:11;100518.31;;;14.23;38.87
53715;BME280;39608;55.630;37.864;2022-09-09T08:55:26;100521.06;;;15.27;38.21
53715;BME280;39608;55.630;37.864;2022-09-09T09:00:36;100520.53;;;16.58;36.36
53715;BME280;39608;55.630;37.864;2022-09-09T09:05:48;100519.66;;;17.17;36.39
53715;BME280;39608;55.630;37.864;2022-09-09T09:10:54;100520.69;;;15.89;36.97
53715;BME280;39608;55.630;37.864;2022-09-09T09:16:02;100527.84;;;14.63;38.97
53715;BME280;39608;55.630;37.864;2022-09-09T09:21:12;100533.38;;;15.10;38.23
53715;BME280;39608;55.630;37.864;2022-09-09T09:26:17;100524.31;;;16.49;35.93
53715;BME280;39608;55.630;37.864;2022-09-09T09:31:20;100528.50;;;17.54;35.12
53715;BME280;39608;55.630;37.864;2022-09-09T09:36:33;100532.88;;;17.95;34.39
53715;BME280;39608;55.630;37.864;2022-09-09T09:41:38;100538.44;;;17.01;34.88
53715;BME280;39608;55.630;37.864;2022-09-09T09:46:40;100532.16;;;15.91;36.95
53715;BME280;39608;55.630;37.864;2022-09-09T09:51:44;100527.13;;;15.10;37.82
53715;BME280;39608;55.630;37.864;2022-09-09T09:56:46;100535.38;;;15.04;37.31
53715;BME280;39608;55.630;37.864;2022-09-09T10:01:49;100527.47;;;15.64;36.74
53715;BME280;39608;55.630;37.864;2022-09-09T10:06:52;100519.72;;;16.21;35.32
53715;BME280;39608;55.630;37.864;2022-09-09T10:11:59;100530.00;;;15.74;36.29
53715;BME280;39608;55.630;37.864;2022-09-09T10:17:14;100528.34;;;15.31;37.06
53715;BME280;39608;55.630;37.864;2022-09-09T10:22:28;100531.81;;;15.51;36.81
53715;BME280;39608;55.630;37.864;2022-09-09T10:27:39;100531.00;;;16.56;35.50
53715;BME280;39608;55.630;37.864;2022-09-09T10:33:01;100534.72;;;17.69;35.18
53715;BME280;39608;55.630;37.864;2022-09-09T10:38:18;100539.38;;;18.70;33.55
53715;BME280;39608;55.630;37.864;2022-09-09T10:43:33;100539.16;;;17.96;34.16
53715;BME280;39608;55.630;37.864;2022-09-09T10:48:50;100540.59;;;16.90;35.43
53715;BME280;39608;55.630;37.864;2022-09-09T10:54:14;100538.56;;;17.68;34.35
53715;BME280;39608;55.630;37.864;2022-09-09T10:59:30;100516.97;;;17.84;33.56
53715;BME280;39608;55.630;37.864;2022-09-09T11:04:38;100545.19;;;17.67;33.94
53715;BME280;39608;55.630;37.864;2022-09-09T11:09:52;100531.75;;;16.93;35.42
53715;BME280;39608;55.630;37.864;2022-09-09T11:15:01;100529.75;;;16.26;35.79
53715;BME280;39608;55.630;37.864;2022-09-09T11:20:11;100532.41;;;17.22;34.18
53715;BME280;39608;55.630;37.864;2022-09-09T11:25:17;100536.78;;;18.29;33.32
53715;BME280;39608;55.630;37.864;2022-09-09T11:30:23;100535.34;;;18.15;32.55
53715;BME280;39608;55.630;37.864;2022-09-09T11:35:34;100539.31;;;17.19;34.23
53715;BME280;39608;55.630;37.864;2022-09-09T11:40:41;100536.03;;;16.27;35.53
53715;BME280;39608;55.630;37.864;2022-09-09T11:45:50;100519.88;;;16.02;35.73
53715;BME280;39608;55.630;37.864;2022-09-09T11:51:02;100525.09;;;17.08;34.97
53715;BME280;39608;55.630;37.864;2022-09-09T11:56:09;100535.03;;;18.42;32.48
53715;BME280;39608;55.630;37.864;2022-09-09T12:01:33;100533.41;;;18.68;32.00
53715;BME280;39608;55.630;37.864;2022-09-09T12:06:44;100536.47;;;17.65;33.41
53715;BME280;39608;55.630;37.864;2022-09-09T12:11:49;100528.72;;;16.36;34.76
53715;BME280;39608;55.630;37.864;2022-09-09T12:16:51;100524.00;;;15.44;35.79
53715;BME280;39608;55.630;37.864;2022-09-09T12:21:59;100520.81;;;15.09;36.93
53715;BME280;39608;55.630;37.864;2022-09-09T12:27:14;100520.97;;;14.85;37.36
53715;BME280;39608;55.630;37.864;2022-09-09T12:32:24;100532.03;;;14.55;36.80
53715;BME280;39608;55.630;37.864;2022-09-09T12:37:37;100514.19;;;14.63;36.91
53715;BME280;39608;55.630;37.864;2022-09-09T12:42:47;100526.00;;;14.59;36.64
53715;BME280;39608;55.630;37.864;2022-09-09T12:47:55;100530.09;;;15.41;35.88
53715;BME280;39608;55.630;37.864;2022-09-09T12:53:01;100523.47;;;16.85;33.84
53715;BME280;39608;55.630;37.864;2022-09-09T12:58:07;100526.63;;;18.56;31.88
53715;BME280;39608;55.630;37.864;2022-09-09T13:03:17;100533.09;;;19.43;31.34
53715;BME280;39608;55.630;37.864;2022-09-09T13:08:20;100523.03;;;19.00;30.19
53715;BME280;39608;55.630;37.864;2022-09-09T13:13:27;100531.91;;;17.20;32.31
53715;BME280;39608;55.630;37.864;2022-09-09T13:18:33;100528.81;;;15.80;33.82
53715;BME280;39608;55.630;37.864;2022-09-09T13:23:36;100522.78;;;15.22;34.25
53715;BME280;39608;55.630;37.864;2022-09-09T13:28:41;100523.69;;;15.32;34.27
53715;BME280;39608;55.630;37.864;2022-09-09T13:33:46;100527.38;;;15.08;34.26
53715;BME280;39608;55.630;37.864;2022-09-09T13:38:54;100524.59;;;14.80;35.30
53715;BME280;39608;55.630;37.864;2022-09-09T13:44:14;100527.06;;;15.56;34.65
53715;BME280;39608;55.630;37.864;2022-09-09T13:49:21;100523.22;;;15.71;34.51
53715;BME280;39608;55.630;37.864;2022-09-09T13:54:23;100527.94;;;17.35;32.85
53715;BME280;39608;55.630;37.864;2022-09-09T13:59:27;100519.38;;;19.34;29.92
53715;BME280;39608;55.630;37.864;2022-09-09T14:04:29;100511.47;;;20.43;28.87
53715;BME280;39608;55.630;37.864;2022-09-09T14:09:31;100524.31;;;20.39;28.32
53715;BME280;39608;55.630;37.864;2022-09-09T14:14:34;100519.34;;;20.32;28.74
53715;BME280;39608;55.630;37.864;2022-09-09T14:19:36;100527.94;;;20.73;27.80
53715;BME280;39608;55.630;37.864;2022-09-09T14:24:38;100519.13;;;20.38;28.53
53715;BME280;39608;55.630;37.864;2022-09-09T14:29:43;100521.91;;;20.16;29.04
53715;BME280;39608;55.630;37.864;2022-09-09T14:34:45;100523.75;;;19.82;29.31
53715;BME280;39608;55.630;37.864;2022-09-09T14:39:50;100521.28;;;19.81;29.73
53715;BME280;39608;55.630;37.864;2022-09-09T14:44:53;100524.47;;;20.22;28.97
53715;BME280;39608;55.630;37.864;2022-09-09T14:49:55;100520.25;;;19.56;29.36
53715;BME280;39608;55.630;37.864;2022-09-09T14:55:01;100518.53;;;18.86;30.28
53715;BME280;39608;55.630;37.864;2022-09-09T15:00:07;100504.47;;;18.09;30.99
53715;BME280;39608;55.630;37.864;2022-09-09T15:05:09;100506.72;;;17.49;31.61
53715;BME280;39608;55.630;37.864;2022-09-09T15:10:11;100521.44;;;16.90;32.51
53715;BME280;39608;55.630;37.864;2022-09-09T15:15:15;100524.34;;;15.84;33.81
53715;BME280;39608;55.630;37.864;2022-09-09T15:20:17;100519.63;;;14.82;35.08
53715;BME280;39608;55.630;37.864;2022-09-09T15:25:19;100519.44;;;14.22;36.12
53715;BME280;39608;55.630;37.864;2022-09-09T15:30:23;100533.19;;;13.92;36.65
53715;BME280;39608;55.630;37.864;2022-09-09T15:35:26;100534.88;;;13.64;37.49
53715;BME280;39608;55.630;37.864;2022-09-09T15:40:28;100529.09;;;13.46;37.51
53715;BME280;39608;55.630;37.864;2022-09-09T15:45:34;100523.97;;;13.40;37.80
53715;BME280;39608;55.630;37.864;2022-09-09T15:50:36;100533.72;;;13.16;38.44
53715;BME280;39608;55.630;37.864;2022-09-09T15:55:38;100543.59;;;13.07;38.94
53715;BME280;39608;55.630;37.864;2022-09-09T16:00:41;100549.38;;;13.00;38.96
53715;BME280;39608;55.630;37.864;2022-09-09T16:05:43;100561.19;;;12.86;39.43
53715;BME280;39608;55.630;37.864;2022-09-09T16:10:46;100551.75;;;12.73;39.47
53715;BME280;39608;55.630;37.864;2022-09-09T16:15:55;100561.81;;;12.77;39.90
53715;BME280;39608;55.630;37.864;2022-09-09T16:20:57;100558.47;;;12.46;40.15
53715;BME280;39608;55.630;37.864;2022-09-09T16:26:00;100553.59;;;12.43;40.42
53715;BME280;39608;55.630;37.864;2022-09-09T16:31:05;100554.69;;;12.42;40.39
53715;BME280;39608;55.630;37.864;2022-09-09T16:36:08;100569.19;;;12.27;41.15
53715;BME280;39608;55.630;37.864;2022-09-09T16:41:12;100576.56;;;12.21;41.09
53715;BME280;39608;55.630;37.864;2022-09-09T16:46:17;100577.63;;;12.25;40.84
53715;BME280;39608;55.630;37.864;2022-09-09T16:51:22;100571.44;;;12.09;41.13
53715;BME280;39608;55.630;37.864;2022-09-09T16:56:26;100579.63;;;12.09;41.58
53715;BME280;39608;55.630;37.864;2022-09-09T17:01:31;100588.03;;;12.13;41.83
53715;BME280;39608;55.630;37.864;2022-09-09T17:06:34;100586.19;;;12.03;42.17
53715;BME280;39608;55.630;37.864;2022-09-09T17:11:39;100596.78;;;12.05;43.00
53715;BME280;39608;55.630;37.864;2022-09-09T17:16:43;100604.09;;;12.04;42.96
53715;BME280;39608;55.630;37.864;2022-09-09T17:21:45;100598.44;;;11.95;43.48
53715;BME280;39608;55.630;37.864;2022-09-09T17:26:48;100596.25;;;11.87;43.93
53715;BME280;39608;55.630;37.864;2022-09-09T17:31:53;100600.84;;;11.92;43.92
53715;BME280;39608;55.630;37.864;2022-09-09T17:36:55;100609.03;;;11.81;44.62
53715;BME280;39608;55.630;37.864;2022-09-09T17:41:59;100609.03;;;11.76;44.65
53715;BME280;39608;55.630;37.864;2022-09-09T17:47:03;100612.84;;;11.80;44.18
53715;BME280;39608;55.630;37.864;2022-09-09T17:52:06;100611.22;;;11.74;44.11
53715;BME280;39608;55.630;37.864;2022-09-09T17:57:10;100616.66;;;11.74;44.04
53715;BME280;39608;55.630;37.864;2022-09-09T18:02:14;100617.19;;;11.76;44.66
53715;BME280;39608;55.630;37.864;2022-09-09T18:07:16;100607.72;;;11.69;45.88
53715;BME280;39608;55.630;37.864;2022-09-09T18:12:18;100602.56;;;11.62;46.45
53715;BME280;39608;55.630;37.864;2022-09-09T18:17:22;100600.41;;;11.59;46.82
53715;BME280;39608;55.630;37.864;2022-09-09T18:22:25;100603.38;;;11.47;47.09
53715;BME280;39608;55.630;37.864;2022-09-09T18:27:27;100610.22;;;11.44;46.69
53715;BME280;39608;55.630;37.864;2022-09-09T18:32:31;100613.44;;;11.41;46.72
53715;BME280;39608;55.630;37.864;2022-09-09T18:37:34;100617.25;;;11.35;47.05
53715;BME280;39608;55.630;37.864;2022-09-09T18:42:39;100612.66;;;11.30;47.23
53715;BME280;39608;55.630;37.864;2022-09-09T18:47:42;100618.63;;;11.33;47.00
53715;BME280;39608;55.630;37.864;2022-09-09T18:52:44;100623.22;;;11.22;47.70
53715;BME280;39608;55.630;37.864;2022-09-09T18:57:46;100624.31;;;11.16;48.35
53715;BME280;39608;55.630;37.864;2022-09-09T19:02:51;100625.16;;;11.11;48.65
53715;BME280;39608;55.630;37.864;2022-09-09T19:07:53;100625.41;;;11.04;48.81
53715;BME280;39608;55.630;37.864;2022-09-09T19:12:55;100624.34;;;11.05;48.56
53715;BME280;39608;55.630;37.864;2022-09-09T19:17:59;100618.34;;;11.08;48.88
53715;BME280;39608;55.630;37.864;2022-09-09T19:23:01;100624.84;;;11.07;49.64
53715;BME280;39608;55.630;37.864;2022-09-09T19:28:03;100632.47;;;11.00;49.64
53715;BME280;39608;55.630;37.864;2022-09-09T19:33:08;100634.09;;;10.96;50.72
53715;BME280;39608;55.630;37.864;2022-09-09T19:38:10;100638.94;;;10.84;51.56
53715;BME280;39608;55.630;37.864;2022-09-09T19:43:12;100621.81;;;10.73;52.56
53715;BME280;39608;55.630;37.864;2022-09-09T19:48:18;100637.84;;;10.79;53.13
53715;BME280;39608;55.630;37.864;2022-09-09T19:53:21;100641.09;;;10.71;53.23
53715;BME280;39608;55.630;37.864;2022-09-09T19:58:23;100646.50;;;10.61;53.44
53715;BME280;39608;55.630;37.864;2022-09-09T20:03:26;100647.63;;;10.70;53.20
53715;BME280;39608;55.630;37.864;2022-09-09T20:08:28;100651.34;;;10.54;54.19
53715;BME280;39608;55.630;37.864;2022-09-09T20:13:32;100657.31;;;10.51;54.76
53715;BME280;39608;55.630;37.864;2022-09-09T20:18:37;100636.41;;;10.46;54.01
53715;BME280;39608;55.630;37.864;2022-09-09T20:23:40;100660.78;;;10.36;54.96
53715;BME280;39608;55.630;37.864;2022-09-09T20:28:45;100662.97;;;10.39;54.74
53715;BME280;39608;55.630;37.864;2022-09-09T20:33:52;100660.78;;;10.36;55.02
53715;BME280;39608;55.630;37.864;2022-09-09T20:38:58;100670.81;;;10.35;54.81
53715;BME280;39608;55.630;37.864;2022-09-09T20:44:02;100662.34;;;10.32;54.37
53715;BME280;39608;55.630;37.864;2022-09-09T20:49:08;100665.59;;;10.34;54.16
53715;BME280;39608;55.630;37.864;2022-09-09T20:54:13;100663.75;;;10.34;53.80
53715;BME280;39608;55.630;37.864;2022-09-09T20:59:17;100667.78;;;10.32;54.58
53715;BME280;39608;55.630;37.864;2022-09-09T21:04:21;100668.50;;;10.17;55.51
53715;BME280;39608;55.630;37.864;2022-09-09T21:09:24;100670.66;;;10.09;55.30
53715;BME280;39608;55.630;37.864;2022-09-09T21:14:26;100668.75;;;10.10;55.12
53715;BME280;39608;55.630;37.864;2022-09-09T21:19:29;100668.19;;;10.08;55.16
53715;BME280;39608;55.630;37.864;2022-09-09T21:24:31;100673.84;;;10.01;55.55
53715;BME280;39608;55.630;37.864;2022-09-09T21:29:33;100674.34;;;9.93;55.89
53715;BME280;39608;55.630;37.864;2022-09-09T21:34:37;100681.97;;;10.01;54.99
53715;BME280;39608;55.630;37.864;2022-09-09T21:39:40;100684.97;;;10.00;54.78
53715;BME280;39608;55.630;37.864;2022-09-09T21:44:42;100684.41;;;9.98;54.42
53715;BME280;39608;55.630;37.864;2022-09-09T21:49:46;100687.66;;;10.00;55.82
53715;BME280;39608;55.630;37.864;2022-09-09T21:54:48;100695.53;;;9.96;56.18
53715;BME280;39608;55.630;37.864;2022-09-09T21:59:50;100681.09;;;9.85;56.24
53715;BME280;39608;55.630;37.864;2022-09-09T22:04:53;100690.03;;;9.86;56.17
53715;BME280;39608;55.630;37.864;2022-09-09T22:09:56;100685.91;;;9.78;56.53
53715;BME280;39608;55.630;37.864;2022-09-09T22:14:58;100686.34;;;9.65;56.65
53715;BME280;39608;55.630;37.864;2022-09-09T22:20:02;100687.94;;;9.61;57.20
53715;BME280;39608;55.630;37.864;2022-09-09T22:25:06;100691.84;;;9.42;57.48
53715;BME280;39608;55.630;37.864;2022-09-09T22:30:09;100686.97;;;9.39;57.33
53715;BME280;39608;55.630;37.864;2022-09-09T22:35:13;100686.09;;;9.34;57.71
53715;BME280;39608;55.630;37.864;2022-09-09T22:40:15;100677.53;;;9.15;58.33
53715;BME280;39608;55.630;37.864;2022-09-09T22:45:17;100683.72;;;9.10;58.42
53715;BME280;39608;55.630;37.864;2022-09-09T22:50:21;100692.66;;;9.11;58.60
53715;BME280;39608;55.630;37.864;2022-09-09T22:55:24;100679.88;;;9.06;58.54
53715;BME280;39608;55.630;37.864;2022-09-09T23:00:27;100683.63;;;9.00;58.93
53715;BME280;39608;55.630;37.864;2022-09-09T23:05:31;100684.75;;;9.04;59.15
53715;BME280;39608;55.630;37.864;2022-09-09T23:10:34;100688.78;;;9.01;58.94
53715;BME280;39608;55.630;37.864;2022-09-09T23:15:37;100685.94;;;8.91;59.46
53715;BME280;39608;55.630;37.864;2022-09-09T23:20:40;100683.75;;;8.88;59.53
53715;BME280;39608;55.630;37.864;2022-09-09T23:25:46;100689.63;;;8.80;59.64
53715;BME280;39608;55.630;37.864;2022-09-09T23:30:49;100684.44;;;8.73;59.57
53715;BME280;39608;55.630;37.864;2022-09-09T23:35:58;100688.81;;;8.79;59.78
53715;BME280;39608;55.630;37.864;2022-09-09T23:41:01;100696.75;;;8.64;59.78
53715;BME280;39608;55.630;37.864;2022-09-09T23:46:03;100700.16;;;8.54;59.94
53715;BME280;39608;55.630;37.864;2022-09-09T23:51:08;100697.38;;;8.49;60.31
53715;BME280;39608;55.630;37.864;2022-09-09T23:56:11;100705.19;;;8.45;58.54
